createdAt,value
2023-08-08T00:00:04.059Z,1.04
2023-08-08T00:01:04.209Z,1.04
2023-08-08T00:02:04.307Z,1.04
2023-08-08T00:03:04.467Z,1.04
2023-08-08T00:04:04.637Z,1.04
2023-08-08T00:05:04.617Z,1.04
2023-08-08T00:06:04.773Z,1.04
2023-08-08T00:07:04.918Z,1.04
2023-08-08T00:08:05.077Z,1.04
2023-08-08T00:09:05.220Z,1.04
2023-08-08T00:10:05.332Z,1.04
2023-08-08T00:11:05.484Z,1.04
2023-08-08T00:12:05.603Z,1.04
2023-08-08T00:13:05.733Z,1.04
2023-08-08T00:14:05.897Z,1.04
2023-08-08T00:15:06.045Z,1.04
2023-08-08T00:16:06.269Z,1.04
2023-08-08T00:17:06.295Z,1.04
2023-08-08T00:18:06.418Z,1.04
2023-08-08T00:19:06.492Z,1.04
2023-08-08T00:20:06.647Z,1.04
2023-08-08T00:21:06.743Z,1.04
2023-08-08T00:22:06.897Z,1.04
2023-08-08T00:23:06.997Z,1.04
2023-08-08T00:24:07.151Z,1.04
2023-08-08T00:25:07.255Z,1.04
2023-08-08T00:26:07.360Z,1.04
2023-08-08T00:27:07.507Z,1.04
2023-08-08T00:28:07.656Z,1.04
2023-08-08T00:29:07.812Z,1.04
2023-08-08T00:30:07.963Z,1.04
2023-08-08T00:31:08.087Z,1.04
2023-08-08T00:32:08.166Z,1.04
2023-08-08T00:33:08.329Z,1.04
2023-08-08T00:34:08.421Z,1.04
2023-08-08T00:35:08.572Z,1.04
2023-08-08T00:36:08.678Z,1.04
2023-08-08T00:37:08.825Z,1.04
2023-08-08T00:38:08.973Z,1.04
2023-08-08T00:39:09.134Z,1.04
2023-08-08T00:40:09.278Z,1.04
2023-08-08T00:41:09.438Z,1.04
2023-08-08T00:42:09.584Z,1.04
2023-08-08T00:43:09.688Z,1.04
2023-08-08T00:44:09.843Z,1.04
2023-08-08T00:45:09.988Z,1.04
2023-08-08T00:46:10.119Z,1.04
2023-08-08T00:47:10.248Z,1.04
2023-08-08T00:48:10.368Z,1.04
2023-08-08T00:49:10.495Z,1.04
2023-08-08T00:50:10.649Z,1.04
2023-08-08T00:51:10.753Z,1.04
2023-08-08T00:52:10.856Z,1.04
2023-08-08T00:53:11.015Z,1.04
2023-08-08T00:54:11.104Z,1.04
2023-08-08T00:55:11.217Z,1.04
2023-08-08T00:56:11.359Z,1.04
2023-08-08T00:57:11.518Z,1.04
2023-08-08T00:58:11.612Z,1.04
2023-08-08T00:59:11.718Z,1.04
2023-08-08T01:00:11.872Z,1.04
2023-08-08T01:01:12.085Z,1.04
2023-08-08T01:02:12.208Z,1.04
2023-08-08T01:03:12.310Z,1.04
2023-08-08T01:04:12.424Z,1.04
2023-08-08T01:05:12.584Z,1.04
2023-08-08T01:06:12.683Z,1.04
2023-08-08T01:07:12.779Z,1.04
2023-08-08T01:08:12.945Z,1.04
2023-08-08T01:09:13.037Z,1.04
2023-08-08T01:10:13.192Z,1.04
2023-08-08T01:11:13.237Z,1.04
2023-08-08T01:12:13.339Z,1.04
2023-08-08T01:13:13.441Z,1.04
2023-08-08T01:14:13.546Z,1.04
2023-08-08T01:15:13.653Z,1.04
2023-08-08T01:16:13.779Z,1.04
2023-08-08T01:17:13.846Z,1.04
2023-08-08T01:18:13.961Z,1.04
2023-08-08T01:19:14.055Z,1.04
2023-08-08T01:20:14.155Z,1.04
2023-08-08T01:21:14.305Z,1.04
2023-08-08T01:22:14.466Z,1.04
2023-08-08T01:23:14.561Z,1.04
2023-08-08T01:24:14.711Z,1.04
2023-08-08T01:25:14.832Z,1.04
2023-08-08T01:26:14.917Z,1.04
2023-08-08T01:27:15.017Z,1.04
2023-08-08T01:28:15.123Z,1.04
2023-08-08T01:29:15.222Z,1.04
2023-08-08T01:30:15.325Z,1.04
2023-08-08T01:31:15.504Z,1.04
2023-08-08T01:32:15.645Z,1.04
2023-08-08T01:33:15.777Z,1.04
2023-08-08T01:34:15.928Z,1.04
2023-08-08T01:35:16.052Z,1.04
2023-08-08T01:36:16.137Z,1.04
2023-08-08T01:37:16.236Z,1.04
2023-08-08T01:38:16.335Z,1.04
2023-08-08T01:39:16.454Z,1.04
2023-08-08T01:40:16.550Z,1.04
2023-08-08T01:41:16.641Z,1.04
2023-08-08T01:42:16.750Z,1.04
2023-08-08T01:43:16.840Z,1.04
2023-08-08T01:44:16.959Z,1.04
2023-08-08T01:45:17.128Z,1.04
2023-08-08T01:46:17.231Z,1.04
2023-08-08T01:47:17.360Z,1.04
2023-08-08T01:48:17.462Z,1.04
2023-08-08T01:49:17.611Z,1.04
2023-08-08T01:50:17.711Z,1.04
2023-08-08T01:51:17.869Z,1.04
2023-08-08T01:52:18.027Z,1.04
2023-08-08T01:53:18.122Z,1.04
2023-08-08T01:54:18.221Z,1.04
2023-08-08T01:55:18.324Z,1.04
2023-08-08T01:56:18.420Z,1.04
2023-08-08T01:57:18.520Z,1.04
2023-08-08T01:58:18.622Z,1.04
2023-08-08T01:59:18.727Z,1.04
2023-08-08T02:00:18.829Z,1.04
2023-08-08T02:01:19.011Z,1.04
2023-08-08T02:02:19.129Z,1.04
2023-08-08T02:03:19.269Z,1.04
2023-08-08T02:04:19.388Z,1.04
2023-08-08T02:05:19.540Z,1.04
2023-08-08T02:06:19.686Z,1.04
2023-08-08T02:07:19.795Z,1.04
2023-08-08T02:08:19.895Z,1.04
2023-08-08T02:09:21.888Z,1.04
2023-08-08T02:11:20.305Z,1.04
2023-08-08T02:12:20.415Z,1.04
2023-08-08T02:13:20.501Z,1.04
2023-08-08T02:14:20.652Z,1.04
2023-08-08T02:15:20.808Z,1.04
2023-08-08T02:16:21.012Z,1.04
2023-08-08T02:17:21.154Z,1.04
2023-08-08T02:18:21.208Z,1.04
2023-08-08T02:19:21.361Z,1.04
2023-08-08T02:20:21.460Z,1.04
2023-08-08T02:21:21.570Z,1.04
2023-08-08T02:22:21.670Z,1.04
2023-08-08T02:23:21.819Z,1.04
2023-08-08T02:24:21.928Z,1.04
2023-08-08T02:25:22.073Z,1.04
2023-08-08T02:26:22.177Z,1.04
2023-08-08T02:27:22.277Z,1.04
2023-08-08T02:28:22.430Z,1.04
2023-08-08T02:29:22.528Z,1.04
2023-08-08T02:30:22.650Z,1.04
2023-08-08T02:31:22.871Z,1.04
2023-08-08T02:32:22.884Z,1.04
2023-08-08T02:33:23.010Z,1.04
2023-08-08T02:34:23.087Z,1.04
2023-08-08T02:35:23.197Z,1.04
2023-08-08T02:36:23.293Z,1.04
2023-08-08T02:37:23.444Z,1.04
2023-08-08T02:38:23.547Z,1.04
2023-08-08T02:39:23.647Z,1.04
2023-08-08T02:40:23.758Z,1.04
2023-08-08T02:41:23.850Z,1.04
2023-08-08T02:42:24.006Z,1.04
2023-08-08T02:43:24.157Z,1.04
2023-08-08T02:44:24.269Z,1.04
2023-08-08T02:45:24.382Z,1.04
2023-08-08T02:46:24.533Z,1.04
2023-08-08T02:47:24.661Z,1.04
2023-08-08T02:48:24.768Z,1.04
2023-08-08T02:49:24.873Z,1.04
2023-08-08T02:50:24.973Z,1.04
2023-08-08T02:51:25.121Z,1.04
2023-08-08T02:52:25.223Z,1.04
2023-08-08T02:53:25.381Z,1.04
2023-08-08T02:54:25.475Z,1.04
2023-08-08T02:55:25.584Z,1.04
2023-08-08T02:56:25.728Z,1.04
2023-08-08T02:57:25.880Z,1.04
2023-08-08T02:58:26.001Z,1.04
2023-08-08T02:59:26.117Z,1.04
2023-08-08T03:00:26.199Z,1.04
2023-08-08T03:01:26.307Z,2
2023-08-08T03:02:26.475Z,2
2023-08-08T03:03:26.598Z,2
2023-08-08T03:04:26.777Z,2
2023-08-08T03:05:26.869Z,2
2023-08-08T03:06:26.954Z,3.04
2023-08-08T03:07:27.097Z,3.04
2023-08-08T03:08:27.251Z,3.04
2023-08-08T03:09:27.356Z,4
2023-08-08T03:10:27.452Z,4
2023-08-08T03:11:27.614Z,5.04
2023-08-08T03:12:27.760Z,6
2023-08-08T03:13:27.919Z,7.04
2023-08-08T03:14:28.074Z,8
2023-08-08T03:15:28.213Z,9.04
2023-08-08T03:16:28.320Z,10
2023-08-08T03:17:28.480Z,12
2023-08-08T03:18:28.584Z,14
2023-08-08T03:19:28.742Z,16
2023-08-08T03:20:28.831Z,18
2023-08-08T03:21:28.941Z,21.04
2023-08-08T03:22:29.072Z,25.04
2023-08-08T03:23:29.180Z,28
2023-08-08T03:24:29.330Z,32
2023-08-08T03:25:29.497Z,38
2023-08-08T03:26:29.633Z,45.04
2023-08-08T03:27:29.786Z,51.04
2023-08-08T03:28:29.893Z,101.04
2023-08-08T03:29:29.990Z,116
2023-08-08T03:30:30.094Z,131.04
2023-08-08T03:31:30.254Z,146
2023-08-08T03:32:30.420Z,162
2023-08-08T03:33:30.498Z,183.04
2023-08-08T03:34:30.646Z,200
2023-08-08T03:35:30.799Z,224
2023-08-08T03:36:30.901Z,249.12
2023-08-08T03:37:31.003Z,277.12
2023-08-08T03:38:31.107Z,321.12
2023-08-08T03:39:31.208Z,357.12
2023-08-08T03:40:31.360Z,406.08
2023-08-08T03:41:31.460Z,449.28
2023-08-08T03:42:31.618Z,505.28
2023-08-08T03:43:31.769Z,556.16
2023-08-08T03:44:31.919Z,614.08
2023-08-08T03:45:32.023Z,683.52
2023-08-08T03:46:32.179Z,764.16
2023-08-08T03:47:32.345Z,869.12
2023-08-08T03:48:32.431Z,962.56
2023-08-08T03:49:32.580Z,1051.52
2023-08-08T03:50:32.687Z,1140.48
2023-08-08T03:51:32.788Z,1230.08
2023-08-08T03:52:32.891Z,1381.12
2023-08-08T03:53:33.052Z,1465.6
2023-08-08T03:54:33.186Z,1553.92
2023-08-08T03:55:33.291Z,1632
2023-08-08T03:56:33.391Z,1707.52
2023-08-08T03:57:33.511Z,1799.68
2023-08-08T03:58:33.590Z,1875.2
2023-08-08T03:59:33.698Z,1958.4
2023-08-08T04:00:33.798Z,2067.2
2023-08-08T04:01:33.951Z,2167.04
2023-08-08T04:02:34.129Z,2282.24
2023-08-08T04:03:34.242Z,2417.92
2023-08-08T04:04:34.310Z,2554.88
2023-08-08T04:05:34.412Z,2682.88
2023-08-08T04:06:34.511Z,2864.64
2023-08-08T04:07:34.608Z,3089.92
2023-08-08T04:08:34.765Z,3704.32
2023-08-08T04:09:34.912Z,4669.44
2023-08-08T04:10:35.067Z,5683.2
2023-08-08T04:11:35.169Z,6400
2023-08-08T04:12:35.320Z,7096.32
2023-08-08T04:13:35.478Z,7342.08
2023-08-08T04:14:35.578Z,6794.24
2023-08-08T04:15:35.724Z,5468.16
2023-08-08T04:16:35.840Z,4462.08
2023-08-08T04:17:35.958Z,4725.76
2023-08-08T04:18:36.040Z,5923.84
2023-08-08T04:19:36.178Z,8202.24
2023-08-08T04:20:36.281Z,8432.64
2023-08-08T04:21:36.384Z,6625.28
2023-08-08T04:22:36.490Z,5519.36
2023-08-08T04:23:36.590Z,4869.12
2023-08-08T04:24:36.691Z,4244.48
2023-08-08T04:25:36.798Z,3681.28
2023-08-08T04:26:36.898Z,3389.44
2023-08-08T04:27:37.056Z,3281.92
2023-08-08T04:28:37.199Z,3555.84
2023-08-08T04:29:37.346Z,4183.04
2023-08-08T04:30:37.554Z,5345.28
2023-08-08T04:31:37.654Z,10106.88
2023-08-08T04:32:37.850Z,13926.399
2023-08-08T04:33:37.916Z,10854.399
2023-08-08T04:34:38.022Z,6318.08
2023-08-08T04:35:38.164Z,6343.68
2023-08-08T04:36:38.270Z,9216
2023-08-08T04:37:38.365Z,8391.68
2023-08-08T04:38:38.516Z,5173.76
2023-08-08T04:39:38.672Z,3942.4
2023-08-08T04:40:39.570Z,4044.8
2023-08-08T04:42:39.080Z,4449.28
2023-08-08T04:43:39.243Z,4715.52
2023-08-08T04:44:39.382Z,5089.28
2023-08-08T04:45:39.568Z,5667.84
2023-08-08T04:46:39.684Z,6118.4
2023-08-08T04:47:39.740Z,6696.96
2023-08-08T04:48:39.841Z,7485.44
2023-08-08T04:49:39.944Z,8258.56
2023-08-08T04:50:40.090Z,10132.479
2023-08-08T04:51:40.246Z,19476.48
2023-08-08T04:52:40.341Z,21442.56
2023-08-08T04:53:40.469Z,17233.92
2023-08-08T04:54:40.602Z,29716.48
2023-08-08T04:55:40.697Z,33464.32
2023-08-08T04:56:40.798Z,32952.32
2023-08-08T04:57:40.905Z,33894.4
2023-08-08T04:58:41.002Z,12124.16
2023-08-08T04:59:41.116Z,9482.24
2023-08-08T05:00:41.322Z,7828.48
2023-08-08T05:01:41.363Z,7393.28
2023-08-08T05:02:41.552Z,21196.8
2023-08-08T05:03:41.695Z,21504
2023-08-08T05:04:41.711Z,7255.04
2023-08-08T05:05:41.866Z,6282.24
2023-08-08T05:06:42.023Z,6277.12
2023-08-08T05:07:42.121Z,6384.64
2023-08-08T05:08:42.221Z,6594.56
2023-08-08T05:09:42.333Z,6676.48
2023-08-08T05:10:42.482Z,6400
2023-08-08T05:11:42.634Z,6005.76
2023-08-08T05:12:42.728Z,5498.88
2023-08-08T05:13:42.878Z,4933.12
2023-08-08T05:14:42.998Z,4561.92
2023-08-08T05:15:43.088Z,4170.24
2023-08-08T05:16:43.262Z,3906.56
2023-08-08T05:17:43.379Z,3681.28
2023-08-08T05:18:43.498Z,3476.48
2023-08-08T05:19:43.591Z,3335.68
2023-08-08T05:20:43.698Z,3192.32
2023-08-08T05:21:43.796Z,3077.12
2023-08-08T05:22:43.944Z,3069.44
2023-08-08T05:23:44.098Z,3320.32
2023-08-08T05:24:44.256Z,3701.76
2023-08-08T05:25:44.403Z,4103.68
2023-08-08T05:26:44.511Z,4341.76
2023-08-08T05:27:44.605Z,4369.92
2023-08-08T05:28:44.756Z,4116.48
2023-08-08T05:29:44.860Z,3760.64
2023-08-08T05:30:44.981Z,3525.12
2023-08-08T05:31:45.122Z,3425.28
2023-08-08T05:32:45.277Z,3381.76
2023-08-08T05:33:45.382Z,3407.36
2023-08-08T05:34:45.521Z,3461.12
2023-08-08T05:35:45.673Z,3420.16
2023-08-08T05:36:45.821Z,3358.72
2023-08-08T05:37:45.922Z,3356.16
2023-08-08T05:38:46.023Z,3427.84
2023-08-08T05:39:46.235Z,3491.84
2023-08-08T05:40:46.287Z,3530.24
2023-08-08T05:41:46.399Z,3512.32
2023-08-08T05:42:46.511Z,3545.6
2023-08-08T05:43:46.655Z,3630.08
2023-08-08T05:44:46.744Z,3724.8
2023-08-08T05:45:46.978Z,3750.4
2023-08-08T05:46:47.042Z,3814.4
2023-08-08T05:47:47.214Z,3919.36
2023-08-08T05:48:48.527Z,4052.48
2023-08-08T05:50:47.594Z,3924.48
2023-08-08T05:51:47.697Z,3788.8
2023-08-08T05:52:47.851Z,3722.24
2023-08-08T05:53:47.950Z,3793.92
2023-08-08T05:54:48.064Z,3809.28
2023-08-08T05:55:48.209Z,3653.12
2023-08-08T05:56:48.310Z,3530.24
2023-08-08T05:57:48.419Z,3525.12
2023-08-08T05:58:48.508Z,3624.96
2023-08-08T05:59:48.612Z,3648
2023-08-08T06:00:48.730Z,3589.12
2023-08-08T06:01:48.910Z,3427.84
2023-08-08T06:02:48.998Z,3361.28
2023-08-08T06:03:49.111Z,3394.56
2023-08-08T06:04:49.221Z,3553.28
2023-08-08T06:05:49.378Z,3765.76
2023-08-08T06:06:49.484Z,3970.56
2023-08-08T06:07:49.578Z,4103.68
2023-08-08T06:08:49.727Z,4154.88
2023-08-08T06:09:49.841Z,4111.36
2023-08-08T06:10:49.940Z,3891.2
2023-08-08T06:11:50.034Z,3765.76
2023-08-08T06:12:50.147Z,3860.48
2023-08-08T06:13:50.242Z,4096
2023-08-08T06:14:50.390Z,4336.64
2023-08-08T06:15:50.494Z,4518.4
2023-08-08T06:16:50.641Z,4556.8
2023-08-08T06:17:50.820Z,4546.56
2023-08-08T06:18:50.961Z,4595.2
2023-08-08T06:19:51.051Z,4687.36
2023-08-08T06:20:51.162Z,4879.36
2023-08-08T06:21:51.265Z,5158.4
2023-08-08T06:22:51.362Z,5800.96
2023-08-08T06:23:51.463Z,6277.12
2023-08-08T06:24:51.557Z,6302.72
2023-08-08T06:25:51.660Z,6077.44
2023-08-08T06:26:51.762Z,5708.8
2023-08-08T06:27:51.865Z,5524.48
2023-08-08T06:28:51.968Z,5340.16
2023-08-08T06:29:52.115Z,5283.84
2023-08-08T06:30:52.219Z,5376
2023-08-08T06:31:52.391Z,5396.48
2023-08-08T06:32:52.510Z,5432.32
2023-08-08T06:33:52.525Z,5478.4
2023-08-08T06:34:52.673Z,5580.8
2023-08-08T06:35:52.784Z,5652.48
2023-08-08T06:36:52.882Z,5893.12
2023-08-08T06:37:52.997Z,6348.8
2023-08-08T06:38:53.083Z,6574.08
2023-08-08T06:39:53.186Z,6983.68
2023-08-08T06:40:53.334Z,7408.64
2023-08-08T06:41:53.439Z,7787.52
2023-08-08T06:42:53.595Z,8064
2023-08-08T06:43:53.694Z,8417.28
2023-08-08T06:44:53.794Z,8360.96
2023-08-08T06:45:53.952Z,7695.36
2023-08-08T06:46:54.221Z,7106.56
2023-08-08T06:47:54.396Z,7024.64
2023-08-08T06:48:54.464Z,6584.32
2023-08-08T06:49:54.569Z,6215.68
2023-08-08T06:50:54.708Z,5954.56
2023-08-08T06:51:54.859Z,6108.16
2023-08-08T06:52:54.972Z,6195.2
2023-08-08T06:53:55.116Z,5795.84
2023-08-08T06:54:55.223Z,4907.52
2023-08-08T06:55:55.369Z,4162.56
2023-08-08T06:56:55.471Z,3883.52
2023-08-08T06:57:55.568Z,3840
2023-08-08T06:58:55.670Z,3832.32
2023-08-08T06:59:55.776Z,3834.88
2023-08-08T07:00:55.926Z,4198.4
2023-08-08T07:01:56.081Z,4881.92
2023-08-08T07:02:56.309Z,5288.96
2023-08-08T07:03:56.380Z,5534.72
2023-08-08T07:04:56.536Z,5913.6
2023-08-08T07:05:56.636Z,6292.48
2023-08-08T07:06:56.744Z,6630.4
2023-08-08T07:07:56.840Z,6768.64
2023-08-08T07:08:56.950Z,7198.72
2023-08-08T07:09:57.039Z,8186.88
2023-08-08T07:10:57.182Z,8893.439
2023-08-08T07:11:57.338Z,8970.24
2023-08-08T07:12:57.455Z,8801.28
2023-08-08T07:13:57.568Z,8796.16
2023-08-08T07:14:57.676Z,8954.88
2023-08-08T07:15:57.769Z,9026.56
2023-08-08T07:16:57.860Z,9113.6
2023-08-08T07:17:57.984Z,9548.8
2023-08-08T07:18:58.056Z,9937.92
2023-08-08T07:19:58.181Z,10362.88
2023-08-08T07:20:58.270Z,10618.88
2023-08-08T07:21:59.124Z,10311.68
2023-08-08T07:23:58.720Z,9246.72
2023-08-08T07:24:58.822Z,8857.6
2023-08-08T07:25:58.971Z,9062.399
2023-08-08T07:26:59.076Z,9354.24
2023-08-08T07:27:59.223Z,9661.439
2023-08-08T07:28:59.393Z,9871.359
2023-08-08T07:29:59.480Z,9497.6
2023-08-08T07:30:59.637Z,8913.92
2023-08-08T07:31:59.955Z,8775.68
2023-08-08T07:32:59.931Z,8581.12
2023-08-08T07:33:59.993Z,7833.6
2023-08-08T07:35:00.161Z,7050.24
2023-08-08T07:36:00.291Z,6753.28
2023-08-08T07:37:00.434Z,6456.32
2023-08-08T07:38:00.604Z,6328.32
2023-08-08T07:39:00.767Z,6579.2
2023-08-08T07:40:00.866Z,6973.44
2023-08-08T07:41:01.026Z,7920.64
2023-08-08T07:42:01.202Z,8765.439
2023-08-08T07:43:01.178Z,9804.8
2023-08-08T07:44:01.281Z,10296.319
2023-08-08T07:45:01.487Z,10204.16
2023-08-08T07:46:01.508Z,9820.16
2023-08-08T07:47:01.793Z,9666.56
2023-08-08T07:48:01.867Z,9871.359
2023-08-08T07:49:01.914Z,10065.92
2023-08-08T07:50:02.016Z,10449.92
2023-08-08T07:51:02.173Z,10926.08
2023-08-08T07:52:02.439Z,10772.479
2023-08-08T07:53:02.432Z,10455.04
2023-08-08T07:54:02.533Z,10127.359
2023-08-08T07:55:02.617Z,9640.96
2023-08-08T07:56:02.771Z,9052.16
2023-08-08T07:57:02.875Z,8704
2023-08-08T07:58:03.046Z,8535.04
2023-08-08T07:59:03.187Z,9077.76
2023-08-08T08:00:03.280Z,10265.6
2023-08-08T08:01:03.459Z,12247.04
2023-08-08T08:02:03.800Z,14223.359
2023-08-08T08:03:03.751Z,15554.56
2023-08-08T08:04:03.882Z,17008.64
2023-08-08T08:05:03.900Z,19476.48
2023-08-08T08:06:03.992Z,25108.48
2023-08-08T08:07:04.094Z,30474.24
2023-08-08T08:08:04.193Z,40468.48
2023-08-08T08:09:04.302Z,42352.64
2023-08-08T08:10:04.464Z,45875.2
2023-08-08T08:11:04.552Z,53657.6
2023-08-08T08:12:04.705Z,46940.16
2023-08-08T08:13:04.800Z,65986.56
2023-08-08T08:14:04.953Z,38502.4
2023-08-08T08:15:05.061Z,42311.68
2023-08-08T08:16:05.158Z,112312.32
2023-08-08T08:17:05.357Z,115015.68
2023-08-08T08:18:05.759Z,114851.84
2023-08-08T08:20:05.672Z,79093.76
2023-08-08T08:21:05.823Z,57425.92
2023-08-08T08:22:05.982Z,51732.48
2023-08-08T08:23:06.128Z,57425.92
2023-08-08T08:24:06.285Z,56770.56
2023-08-08T08:25:06.428Z,51527.68
2023-08-08T08:26:06.695Z,48537.6
2023-08-08T08:27:06.827Z,35041.28
2023-08-08T08:28:06.980Z,28610.56
2023-08-08T08:29:07.150Z,23183.36
2023-08-08T08:30:07.284Z,17879.04
2023-08-08T08:31:07.451Z,14981.12
2023-08-08T08:32:07.600Z,13352.96
2023-08-08T08:33:07.763Z,12933.12
2023-08-08T08:34:07.894Z,13762.56
2023-08-08T08:35:08.043Z,16824.32
2023-08-08T08:36:08.145Z,20275.2
2023-08-08T08:37:08.299Z,23552
2023-08-08T08:38:08.428Z,25251.84
2023-08-08T08:39:08.552Z,27033.6
2023-08-08T08:40:08.722Z,29491.2
2023-08-08T08:41:08.854Z,32645.12
2023-08-08T08:42:08.966Z,33013.76
2023-08-08T08:43:09.113Z,37662.72
2023-08-08T08:44:09.289Z,43417.6
2023-08-08T08:45:09.446Z,56156.16
2023-08-08T08:46:09.592Z,67297.28
2023-08-08T08:47:09.728Z,63733.76
2023-08-08T08:48:09.968Z,66068.48
2023-08-08T08:49:10.034Z,54149.12
2023-08-08T08:50:10.185Z,56442.88
2023-08-08T08:51:10.276Z,54722.56
2023-08-08T08:52:10.431Z,47349.76
2023-08-08T08:53:10.582Z,40099.84
2023-08-08T08:54:10.680Z,36392.96
2023-08-08T08:55:10.804Z,34693.12
2023-08-08T08:56:10.929Z,34099.2
2023-08-08T08:57:11.050Z,35368.96
2023-08-08T08:58:11.149Z,39178.24
2023-08-08T08:59:11.295Z,41676.8
2023-08-08T09:00:11.393Z,44113.92
2023-08-08T09:01:11.584Z,43376.64
2023-08-08T09:02:11.692Z,44851.2
2023-08-08T09:03:11.925Z,47390.72
2023-08-08T09:04:12.002Z,48496.64
2023-08-08T09:05:12.196Z,47390.72
2023-08-08T09:06:12.379Z,48087.04
2023-08-08T09:07:12.551Z,56770.56
2023-08-08T09:08:12.676Z,54886.4
2023-08-08T09:09:16.617Z,73523.2
2023-08-08T09:10:12.963Z,66560
2023-08-08T09:11:13.072Z,78356.48
2023-08-08T09:12:13.163Z,81920
2023-08-08T09:13:13.314Z,120504.32
2023-08-08T09:14:13.432Z,58368
2023-08-08T09:15:13.564Z,58613.76
2023-08-08T09:16:13.847Z,50257.92
2023-08-08T09:17:13.829Z,49192.96
2023-08-08T09:18:13.950Z,40796.16
2023-08-08T09:19:14.075Z,38522.88
2023-08-08T09:20:14.231Z,39608.32
2023-08-08T09:21:14.375Z,42229.76
2023-08-08T09:22:14.501Z,41594.88
2023-08-08T09:23:14.585Z,33095.68
2023-08-08T09:24:14.730Z,30433.28
2023-08-08T09:25:14.881Z,29716.48
2023-08-08T09:26:14.998Z,32768
2023-08-08T09:27:15.091Z,33361.92
2023-08-08T09:28:15.261Z,29696
2023-08-08T09:29:15.470Z,22999.04
2023-08-08T09:30:15.596Z,19681.28
2023-08-08T09:31:15.761Z,19169.28
2023-08-08T09:32:15.898Z,21483.52
2023-08-08T09:33:16.002Z,23470.08
2023-08-08T09:35:16.293Z,32051.2
2023-08-08T09:36:16.605Z,31211.52
2023-08-08T09:37:16.750Z,33792
2023-08-08T09:38:16.907Z,34467.84
2023-08-08T09:39:17.010Z,33730.56
2023-08-08T09:40:17.164Z,34324.48
2023-08-08T09:41:17.267Z,35246.08
2023-08-08T09:42:17.415Z,35164.16
2023-08-08T09:43:17.523Z,34775.04
2023-08-08T09:44:17.627Z,36065.28
2023-08-08T09:45:17.768Z,36024.32
2023-08-08T09:46:18.009Z,34734.08
2023-08-08T09:47:18.150Z,30392.32
2023-08-08T09:48:18.273Z,27566.08
2023-08-08T09:49:18.431Z,21893.12
2023-08-08T09:50:18.532Z,18360.32
2023-08-08T09:51:18.639Z,17141.76
2023-08-08T09:52:18.781Z,14807.04
2023-08-08T09:53:18.941Z,11868.16
2023-08-08T09:54:19.059Z,10152.96
2023-08-08T09:55:19.194Z,10813.439
2023-08-08T09:56:19.291Z,10286.08
2023-08-08T09:57:19.396Z,9108.479
2023-08-08T09:58:19.542Z,9799.68
2023-08-08T09:59:19.644Z,11499.52
2023-08-08T10:00:19.798Z,12308.479
2023-08-08T10:01:19.931Z,12503.04
2023-08-08T10:02:20.067Z,12339.2
2023-08-08T10:03:20.206Z,12288
2023-08-08T10:04:20.307Z,12288
2023-08-08T10:05:20.426Z,12544
2023-08-08T10:06:20.559Z,12871.68
2023-08-08T10:07:20.710Z,14213.12
2023-08-08T10:08:20.883Z,15534.08
2023-08-08T10:09:21.041Z,16762.88
2023-08-08T10:10:21.317Z,18370.56
2023-08-08T10:11:21.370Z,21114.88
2023-08-08T10:12:21.855Z,23265.28
2023-08-08T10:14:21.786Z,27996.16
2023-08-08T10:15:21.888Z,30228.48
2023-08-08T10:16:22.063Z,26112
2023-08-08T10:17:22.196Z,23900.16
2023-08-08T10:18:22.334Z,21954.56
2023-08-08T10:19:22.480Z,20224
2023-08-08T10:20:22.602Z,18309.12
2023-08-08T10:21:22.739Z,16670.72
2023-08-08T10:22:22.896Z,15800.319
2023-08-08T10:23:23.040Z,15093.76
2023-08-08T10:24:23.143Z,14428.16
2023-08-08T10:25:23.293Z,14039.04
2023-08-08T10:26:23.445Z,13486.08
2023-08-08T10:27:23.613Z,12677.12
2023-08-08T10:28:26.582Z,12042.239
2023-08-08T10:29:23.969Z,11161.6
2023-08-08T10:30:24.104Z,10388.479
2023-08-08T10:31:24.267Z,9369.6
2023-08-08T10:32:24.374Z,8627.2
2023-08-08T10:33:24.462Z,8222.72
2023-08-08T10:34:24.604Z,8478.72
2023-08-08T10:35:24.765Z,9026.56
2023-08-08T10:36:24.921Z,10106.88
2023-08-08T10:37:25.074Z,11356.16
2023-08-08T10:38:25.181Z,12431.359
2023-08-08T10:39:25.320Z,13977.6
2023-08-08T10:40:25.437Z,14868.479
2023-08-08T10:41:25.573Z,15605.76
2023-08-08T10:42:25.673Z,16517.12
2023-08-08T10:43:25.826Z,17356.8
2023-08-08T10:44:25.928Z,18339.84
2023-08-08T10:45:26.447Z,19240.96
2023-08-08T10:46:26.693Z,20531.2
2023-08-08T10:47:26.757Z,22507.52
2023-08-08T10:48:26.838Z,23715.84
2023-08-08T10:49:27.006Z,24616.96
2023-08-08T10:50:27.154Z,24637.44
2023-08-08T10:51:27.294Z,24719.36
2023-08-08T10:52:27.443Z,24903.68
2023-08-08T10:53:27.599Z,25210.88
2023-08-08T10:54:27.696Z,25948.16
2023-08-08T10:55:27.860Z,27115.52
2023-08-08T10:56:27.998Z,28344.32
2023-08-08T10:57:28.105Z,30556.16
2023-08-08T10:58:28.266Z,32911.36
2023-08-08T10:59:28.408Z,34365.44
2023-08-08T11:00:28.508Z,34119.68
2023-08-08T11:01:28.694Z,34283.52
2023-08-08T11:02:28.833Z,39464.96
2023-08-08T11:03:28.911Z,46366.72
2023-08-08T11:04:29.094Z,47513.6
2023-08-08T11:05:29.314Z,41840.64
2023-08-08T11:06:29.368Z,39014.4
2023-08-08T11:07:29.526Z,43458.56
2023-08-08T11:08:29.646Z,42844.16
2023-08-08T11:09:29.775Z,36003.84
2023-08-08T11:10:29.922Z,53821.44
2023-08-08T11:11:30.043Z,80650.24
2023-08-08T11:12:30.183Z,38277.12
2023-08-08T11:13:30.329Z,36331.52
2023-08-08T11:14:30.489Z,33464.32
2023-08-08T11:15:30.612Z,28078.08
2023-08-08T11:16:30.742Z,23162.88
2023-08-08T11:17:30.846Z,18718.72
2023-08-08T11:18:30.994Z,17817.6
2023-08-08T11:19:31.140Z,64102.4
2023-08-08T11:20:31.304Z,55091.2
2023-08-08T11:21:31.396Z,66437.12
2023-08-08T11:22:31.547Z,43622.4
2023-08-08T11:23:31.653Z,63610.88
2023-08-08T11:24:31.759Z,64307.2
2023-08-08T11:25:31.904Z,47267.84
2023-08-08T11:26:32.728Z,26398.72
2023-08-08T11:28:32.403Z,18370.56
2023-08-08T11:29:33.227Z,60006.4
2023-08-08T11:31:32.898Z,23388.16
2023-08-08T11:32:33.646Z,23531.52
2023-08-08T11:34:33.338Z,29962.24
2023-08-08T11:35:33.469Z,20070.4
2023-08-08T11:36:33.570Z,51486.72
2023-08-08T11:37:33.724Z,59555.84
2023-08-08T11:38:33.829Z,58040.32
2023-08-08T11:39:33.978Z,59678.72
2023-08-08T11:40:34.081Z,50216.96
2023-08-08T11:41:34.430Z,60375.04
2023-08-08T11:42:34.538Z,39424
2023-08-08T11:43:34.692Z,58245.12
2023-08-08T11:44:34.837Z,31723.52
2023-08-08T11:45:35.022Z,37621.76
2023-08-08T11:46:35.280Z,26419.2
2023-08-08T11:47:35.426Z,24576
2023-08-08T11:48:35.493Z,23265.28
2023-08-08T11:49:35.654Z,21913.6
2023-08-08T11:50:35.802Z,19435.52
2023-08-08T11:51:35.976Z,18585.6
2023-08-08T11:52:36.056Z,18073.6
2023-08-08T11:53:36.202Z,17059.84
2023-08-08T11:54:36.302Z,14796.8
2023-08-08T11:55:36.458Z,12871.68
2023-08-08T11:56:36.624Z,10977.279
2023-08-08T11:57:36.766Z,9108.479
2023-08-08T11:58:36.914Z,8232.96
2023-08-08T11:59:37.070Z,7403.52
2023-08-08T12:00:37.186Z,7383.04
2023-08-08T12:02:37.511Z,9349.12
2023-08-08T12:03:37.775Z,14008.319
2023-08-08T12:04:37.882Z,20746.24
2023-08-08T12:05:38.037Z,25845.76
2023-08-08T12:06:38.187Z,35348.48
2023-08-08T12:07:38.331Z,56074.24
2023-08-08T12:08:38.513Z,40837.12
2023-08-08T12:09:38.639Z,31047.68
2023-08-08T12:10:38.781Z,41308.16
2023-08-08T12:11:38.940Z,32092.16
2023-08-08T12:12:39.504Z,31948.8
2023-08-08T12:13:39.190Z,35799.04
2023-08-08T12:14:46.095Z,48742.4
2023-08-08T12:15:39.446Z,59842.56
2023-08-08T12:16:40.554Z,59555.84
2023-08-08T12:18:39.899Z,58613.76
2023-08-08T12:19:40.624Z,59146.24
2023-08-08T12:21:40.429Z,30453.76
2023-08-08T12:22:41.185Z,27279.36
2023-08-08T12:24:40.859Z,23429.12
2023-08-08T12:25:41.626Z,24166.4
2023-08-08T12:27:41.340Z,24616.96
2023-08-08T12:28:42.140Z,28385.28
2023-08-08T12:30:41.768Z,44810.24
2023-08-08T12:31:42.632Z,38174.72
2023-08-08T12:33:42.239Z,51159.04
2023-08-08T12:34:43.023Z,49848.32
2023-08-08T12:36:42.687Z,47063.04
2023-08-08T12:37:43.483Z,40632.32
2023-08-08T12:39:43.140Z,23326.72
2023-08-08T12:40:43.712Z,26992.64
2023-08-08T12:42:43.594Z,27873.28
2023-08-08T12:43:44.379Z,26521.6